sensor_id;sensor_type;location;lat;lon;timestamp;pressure;altitude;pressure_sealevel;temperature;humidity
75996;BME280;64681;49.738;9.004;2023-04-01T00:01:19;97888.41;;;10.00;70.67
75996;BME280;64681;49.738;9.004;2023-04-01T00:03:45;97881.31;;;10.11;70.57
75996;BME280;64681;49.738;9.004;2023-04-01T00:06:14;97878.75;;;10.18;68.80
75996;BME280;64681;49.738;9.004;2023-04-01T00:08:40;97879.13;;;10.20;70.23
75996;BME280;64681;49.738;9.004;2023-04-01T00:11:05;97890.84;;;10.42;69.47
75996;BME280;64681;49.738;9.004;2023-04-01T00:13:31;97885.13;;;10.10;70.93
75996;BME280;64681;49.738;9.004;2023-04-01T00:15:57;97889.13;;;10.27;70.58
75996;BME280;64681;49.738;9.004;2023-04-01T00:18:24;97882.81;;;10.39;69.23
75996;BME280;64681;49.738;9.004;2023-04-01T00:20:51;97887.44;;;10.42;68.26
75996;BME280;64681;49.738;9.004;2023-04-01T00:23:17;97884.38;;;10.43;69.17
75996;BME280;64681;49.738;9.004;2023-04-01T00:25:44;97880.91;;;10.39;69.33
75996;BME280;64681;49.738;9.004;2023-04-01T00:28:10;97883.19;;;10.37;69.87
75996;BME280;64681;49.738;9.004;2023-04-01T00:30:37;97879.75;;;10.74;68.37
75996;BME280;64681;49.738;9.004;2023-04-01T00:33:03;97879.25;;;10.65;68.33
75996;BME280;64681;49.738;9.004;2023-04-01T00:35:29;97881.88;;;10.58;69.47
75996;BME280;64681;49.738;9.004;2023-04-01T00:37:55;97879.34;;;10.04;70.77
75996;BME280;64681;49.738;9.004;2023-04-01T00:42:52;97881.38;;;10.49;69.58
75996;BME280;64681;49.738;9.004;2023-04-01T00:45:28;97883.84;;;10.65;69.04
75996;BME280;64681;49.738;9.004;2023-04-01T00:47:54;97875.03;;;10.60;68.76
75996;BME280;64681;49.738;9.004;2023-04-01T00:50:24;97880.47;;;10.71;68.28
75996;BME280;64681;49.738;9.004;2023-04-01T00:52:51;97889.16;;;10.61;68.34
75996;BME280;64681;49.738;9.004;2023-04-01T00:55:21;97870.84;;;10.63;67.60
75996;BME280;64681;49.738;9.004;2023-04-01T00:57:50;97871.94;;;10.58;67.56
75996;BME280;64681;49.738;9.004;2023-04-01T01:00:18;97879.03;;;10.43;68.75
75996;BME280;64681;49.738;9.004;2023-04-01T01:02:45;97881.84;;;10.24;70.08
75996;BME280;64681;49.738;9.004;2023-04-01T01:05:14;97876.75;;;10.42;68.82
75996;BME280;64681;49.738;9.004;2023-04-01T01:08:03;97880.38;;;10.26;68.49
75996;BME280;64681;49.738;9.004;2023-04-01T01:10:34;97889.00;;;10.50;68.40
75996;BME280;64681;49.738;9.004;2023-04-01T01:15:58;97885.25;;;10.21;68.84
75996;BME280;64681;49.738;9.004;2023-04-01T01:21:32;97863.56;;;10.26;68.02
75996;BME280;64681;49.738;9.004;2023-04-01T01:27:02;97872.78;;;10.32;68.30
75996;BME280;64681;49.738;9.004;2023-04-01T01:37:44;97859.66;;;9.86;69.88
75996;BME280;64681;49.738;9.004;2023-04-01T01:40:12;97870.03;;;10.25;69.21
75996;BME280;64681;49.738;9.004;2023-04-01T01:42:44;97859.97;;;10.41;68.47
75996;BME280;64681;49.738;9.004;2023-04-01T01:45:15;97851.66;;;10.16;69.59
75996;BME280;64681;49.738;9.004;2023-04-01T01:47:43;97857.59;;;10.36;68.64
75996;BME280;64681;49.738;9.004;2023-04-01T01:50:12;97862.53;;;10.34;67.95
75996;BME280;64681;49.738;9.004;2023-04-01T01:52:39;97863.06;;;10.47;67.78
75996;BME280;64681;49.738;9.004;2023-04-01T01:55:30;97864.31;;;10.23;69.38
75996;BME280;64681;49.738;9.004;2023-04-01T02:01:00;97849.34;;;10.49;67.48
75996;BME280;64681;49.738;9.004;2023-04-01T02:03:33;97854.66;;;10.11;69.31
75996;BME280;64681;49.738;9.004;2023-04-01T02:06:02;97856.06;;;10.35;68.45
75996;BME280;64681;49.738;9.004;2023-04-01T02:08:59;97856.31;;;10.23;68.61
75996;BME280;64681;49.738;9.004;2023-04-01T02:11:32;97849.00;;;10.16;69.08
75996;BME280;64681;49.738;9.004;2023-04-01T02:14:30;97855.75;;;10.40;68.01
75996;BME280;64681;49.738;9.004;2023-04-01T02:17:13;97855.22;;;10.61;66.89
75996;BME280;64681;49.738;9.004;2023-04-01T02:19:51;97855.66;;;10.33;67.47
75996;BME280;64681;49.738;9.004;2023-04-01T02:22:23;97852.22;;;10.33;68.24
75996;BME280;64681;49.738;9.004;2023-04-01T02:24:53;97854.94;;;10.36;67.90
75996;BME280;64681;49.738;9.004;2023-04-01T02:27:20;97853.78;;;10.03;68.71
75996;BME280;64681;49.738;9.004;2023-04-01T02:29:46;97858.66;;;10.28;67.85
75996;BME280;64681;49.738;9.004;2023-04-01T02:32:13;97858.16;;;10.19;69.08
75996;BME280;64681;49.738;9.004;2023-04-01T02:34:40;97852.56;;;10.31;67.67
75996;BME280;64681;49.738;9.004;2023-04-01T02:37:07;97861.69;;;10.26;68.34
75996;BME280;64681;49.738;9.004;2023-04-01T02:39:33;97856.91;;;10.43;67.64
75996;BME280;64681;49.738;9.004;2023-04-01T02:41:59;97863.06;;;10.47;66.61
75996;BME280;64681;49.738;9.004;2023-04-01T02:44:24;97859.78;;;10.61;66.52
75996;BME280;64681;49.738;9.004;2023-04-01T02:46:50;97859.78;;;10.61;66.40
75996;BME280;64681;49.738;9.004;2023-04-01T02:49:15;97855.81;;;10.48;66.84
75996;BME280;64681;49.738;9.004;2023-04-01T02:51:41;97863.25;;;10.31;67.36
75996;BME280;64681;49.738;9.004;2023-04-01T02:54:06;97869.72;;;10.30;67.10
75996;BME280;64681;49.738;9.004;2023-04-01T02:56:32;97863.41;;;10.42;66.12
75996;BME280;64681;49.738;9.004;2023-04-01T02:58:57;97861.56;;;10.50;66.85
75996;BME280;64681;49.738;9.004;2023-04-01T03:01:23;97865.03;;;10.54;66.19
75996;BME280;64681;49.738;9.004;2023-04-01T03:03:49;97862.59;;;10.38;66.12
75996;BME280;64681;49.738;9.004;2023-04-01T03:06:16;97857.31;;;10.45;67.02
75996;BME280;64681;49.738;9.004;2023-04-01T03:08:42;97864.16;;;10.42;67.13
75996;BME280;64681;49.738;9.004;2023-04-01T03:11:09;97865.78;;;10.20;67.72
75996;BME280;64681;49.738;9.004;2023-04-01T03:13:35;97861.94;;;10.48;67.35
75996;BME280;64681;49.738;9.004;2023-04-01T03:16:00;97849.47;;;10.25;66.87
75996;BME280;64681;49.738;9.004;2023-04-01T03:18:26;97851.44;;;10.32;68.12
75996;BME280;64681;49.738;9.004;2023-04-01T03:20:51;97852.84;;;10.53;67.59
75996;BME280;64681;49.738;9.004;2023-04-01T03:23:17;97854.00;;;10.55;65.70
75996;BME280;64681;49.738;9.004;2023-04-01T03:25:45;97852.41;;;10.47;67.39
75996;BME280;64681;49.738;9.004;2023-04-01T03:28:11;97848.59;;;10.48;67.17
75996;BME280;64681;49.738;9.004;2023-04-01T03:30:37;97858.66;;;10.28;67.94
75996;BME280;64681;49.738;9.004;2023-04-01T03:33:03;97849.66;;;10.40;67.50
75996;BME280;64681;49.738;9.004;2023-04-01T03:35:28;97835.91;;;10.38;67.94
75996;BME280;64681;49.738;9.004;2023-04-01T03:37:55;97851.22;;;10.44;67.33
75996;BME280;64681;49.738;9.004;2023-04-01T03:40:21;97857.44;;;10.22;67.69
75996;BME280;64681;49.738;9.004;2023-04-01T03:42:47;97853.25;;;9.90;68.53
75996;BME280;64681;49.738;9.004;2023-04-01T03:45:13;97854.53;;;10.34;68.10
75996;BME280;64681;49.738;9.004;2023-04-01T03:47:39;97873.56;;;10.33;67.52
75996;BME280;64681;49.738;9.004;2023-04-01T03:50:06;97878.16;;;10.02;68.79
75996;BME280;64681;49.738;9.004;2023-04-01T03:52:33;97868.47;;;10.20;68.56
75996;BME280;64681;49.738;9.004;2023-04-01T03:54:58;97861.78;;;10.03;68.47
75996;BME280;64681;49.738;9.004;2023-04-01T03:57:24;97853.50;;;10.12;68.61
75996;BME280;64681;49.738;9.004;2023-04-01T03:59:50;97864.25;;;10.19;68.48
75996;BME280;64681;49.738;9.004;2023-04-01T04:02:15;97861.78;;;10.03;68.47
75996;BME280;64681;49.738;9.004;2023-04-01T04:04:41;97869.84;;;10.07;68.46
75996;BME280;64681;49.738;9.004;2023-04-01T04:07:07;97860.94;;;9.95;69.14
75996;BME280;64681;49.738;9.004;2023-04-01T04:09:32;97858.44;;;10.10;68.59
75996;BME280;64681;49.738;9.004;2023-04-01T04:11:58;97860.94;;;9.95;68.41
75996;BME280;64681;49.738;9.004;2023-04-01T04:14:24;97861.19;;;10.17;67.93
75996;BME280;64681;49.738;9.004;2023-04-01T04:16:50;97863.34;;;10.04;69.11
75996;BME280;64681;49.738;9.004;2023-04-01T04:19:16;97867.72;;;9.89;69.49
75996;BME280;64681;49.738;9.004;2023-04-01T04:21:42;97847.56;;;10.26;68.15
75996;BME280;64681;49.738;9.004;2023-04-01T04:24:08;97850.44;;;10.10;68.65
75996;BME280;64681;49.738;9.004;2023-04-01T04:26:34;97854.00;;;9.87;68.96
75996;BME280;64681;49.738;9.004;2023-04-01T04:29:01;97855.28;;;10.01;69.50
75996;BME280;64681;49.738;9.004;2023-04-01T04:31:26;97847.41;;;9.81;68.43
75996;BME280;64681;49.738;9.004;2023-04-01T04:33:53;97845.13;;;9.79;69.94
75996;BME280;64681;49.738;9.004;2023-04-01T04:36:19;97854.47;;;9.96;68.70
75996;BME280;64681;49.738;9.004;2023-04-01T04:38:45;97845.28;;;10.24;67.78
75996;BME280;64681;49.738;9.004;2023-04-01T04:41:13;97842.88;;;9.81;70.56
75996;BME280;64681;49.738;9.004;2023-04-01T04:43:40;97844.03;;;9.84;72.58
75996;BME280;64681;49.738;9.004;2023-04-01T04:46:09;97842.22;;;9.61;73.95
75996;BME280;64681;49.738;9.004;2023-04-01T04:48:35;97846.69;;;9.54;74.91
75996;BME280;64681;49.738;9.004;2023-04-01T04:51:02;97851.97;;;9.50;75.42
75996;BME280;64681;49.738;9.004;2023-04-01T04:53:27;97850.72;;;9.71;74.59
75996;BME280;64681;49.738;9.004;2023-04-01T04:55:53;97850.50;;;9.53;74.22
75996;BME280;64681;49.738;9.004;2023-04-01T04:58:19;97839.50;;;9.58;74.01
75996;BME280;64681;49.738;9.004;2023-04-01T05:00:46;97843.31;;;9.57;75.46
75996;BME280;64681;49.738;9.004;2023-04-01T05:03:12;97848.44;;;9.42;76.45
75996;BME280;64681;49.738;9.004;2023-04-01T05:05:38;97843.91;;;9.46;75.77
75996;BME280;64681;49.738;9.004;2023-04-01T05:08:04;97844.50;;;9.32;77.22
75996;BME280;64681;49.738;9.004;2023-04-01T05:10:30;97844.41;;;9.25;77.90
75996;BME280;64681;49.738;9.004;2023-04-01T05:12:57;97846.00;;;9.07;77.94
75996;BME280;64681;49.738;9.004;2023-04-01T05:15:23;97847.16;;;9.32;77.32
75996;BME280;64681;49.738;9.004;2023-04-01T05:17:48;97852.41;;;9.02;78.83
75996;BME280;64681;49.738;9.004;2023-04-01T05:20:14;97846.47;;;9.12;79.19
75996;BME280;64681;49.738;9.004;2023-04-01T05:22:42;97835.78;;;9.09;78.88
75996;BME280;64681;49.738;9.004;2023-04-01T05:25:07;97837.69;;;9.35;77.97
75996;BME280;64681;49.738;9.004;2023-04-01T05:27:33;97838.44;;;8.85;79.60
75996;BME280;64681;49.738;9.004;2023-04-01T05:29:58;97832.22;;;9.01;79.91
75996;BME280;64681;49.738;9.004;2023-04-01T05:32:24;97831.41;;;9.24;78.17
75996;BME280;64681;49.738;9.004;2023-04-01T05:34:51;97836.25;;;9.14;79.01
75996;BME280;64681;49.738;9.004;2023-04-01T05:37:17;97847.91;;;9.06;79.17
75996;BME280;64681;49.738;9.004;2023-04-01T05:39:42;97842.88;;;9.01;80.30
75996;BME280;64681;49.738;9.004;2023-04-01T05:42:08;97830.72;;;9.00;80.37
75996;BME280;64681;49.738;9.004;2023-04-01T05:44:34;97839.50;;;9.04;79.37
75996;BME280;64681;49.738;9.004;2023-04-01T05:47:00;97835.78;;;8.85;79.72
75996;BME280;64681;49.738;9.004;2023-04-01T05:49:26;97841.09;;;9.09;79.62
75996;BME280;64681;49.738;9.004;2023-04-01T05:51:52;97834.75;;;9.17;78.38
75996;BME280;64681;49.738;9.004;2023-04-01T05:54:18;97838.28;;;9.25;79.88
75996;BME280;64681;49.738;9.004;2023-04-01T05:56:44;97833.38;;;9.00;79.77
75996;BME280;64681;49.738;9.004;2023-04-01T05:59:10;97841.03;;;9.05;80.75
75996;BME280;64681;49.738;9.004;2023-04-01T06:01:36;97851.84;;;9.43;79.20
75996;BME280;64681;49.738;9.004;2023-04-01T06:04:02;97843.63;;;9.52;78.94
75996;BME280;64681;49.738;9.004;2023-04-01T06:06:29;97854.25;;;9.25;79.01
75996;BME280;64681;49.738;9.004;2023-04-01T06:09:21;97855.09;;;9.29;79.48
75996;BME280;64681;49.738;9.004;2023-04-01T06:12:10;97838.59;;;9.46;79.48
75996;BME280;64681;49.738;9.004;2023-04-01T06:15:08;97852.78;;;9.54;79.29
75996;BME280;64681;49.738;9.004;2023-04-01T06:32:42;97839.59;;;9.65;77.88
75996;BME280;64681;49.738;9.004;2023-04-01T06:35:51;97844.00;;;9.80;78.64
75996;BME280;64681;49.738;9.004;2023-04-01T06:39:15;97846.75;;;9.57;78.81
75996;BME280;64681;49.738;9.004;2023-04-01T07:44:06;97859.47;;;9.71;79.17
75996;BME280;64681;49.738;9.004;2023-04-01T07:47:45;97864.06;;;9.71;77.86
75996;BME280;64681;49.738;9.004;2023-04-01T16:05:00;98118.25;;;11.92;77.40
75996;BME280;64681;49.738;9.004;2023-04-01T16:23:51;98139.19;;;10.80;79.58
75996;BME280;64681;49.738;9.004;2023-04-01T16:29:26;98139.94;;;11.11;79.05
75996;BME280;64681;49.738;9.004;2023-04-01T16:34:34;98137.88;;;10.97;80.21
75996;BME280;64681;49.738;9.004;2023-04-01T16:37:09;98143.16;;;10.93;79.60
75996;BME280;64681;49.738;9.004;2023-04-01T16:42:51;98148.88;;;10.65;78.17
75996;BME280;64681;49.738;9.004;2023-04-01T16:48:12;98156.50;;;10.93;79.39
75996;BME280;64681;49.738;9.004;2023-04-01T16:51:04;98157.72;;;11.00;78.83
75996;BME280;64681;49.738;9.004;2023-04-01T16:53:50;98157.78;;;11.03;78.64
75996;BME280;64681;49.738;9.004;2023-04-01T16:56:38;98165.88;;;10.80;78.74
75996;BME280;64681;49.738;9.004;2023-04-01T17:02:11;98167.34;;;10.51;79.89
75996;BME280;64681;49.738;9.004;2023-04-01T17:04:44;98167.72;;;10.49;79.91
75996;BME280;64681;49.738;9.004;2023-04-01T17:23:53;98189.22;;;10.60;78.59
75996;BME280;64681;49.738;9.004;2023-04-01T17:31:46;98202.03;;;10.27;79.90
75996;BME280;64681;49.738;9.004;2023-04-01T17:34:45;98212.31;;;10.49;79.73
75996;BME280;64681;49.738;9.004;2023-04-01T17:37:16;98203.56;;;10.28;80.51
75996;BME280;64681;49.738;9.004;2023-04-01T17:40:26;98217.38;;;10.34;80.66
75996;BME280;64681;49.738;9.004;2023-04-01T17:58:46;98238.63;;;10.27;78.54
75996;BME280;64681;49.738;9.004;2023-04-01T18:02:17;98246.75;;;10.34;78.44
75996;BME280;64681;49.738;9.004;2023-04-01T18:07:25;98246.91;;;10.22;79.40
75996;BME280;64681;49.738;9.004;2023-04-01T18:12:57;98260.28;;;10.02;79.49
75996;BME280;64681;49.738;9.004;2023-04-01T18:15:31;98265.47;;;10.14;79.08
75996;BME280;64681;49.738;9.004;2023-04-01T18:26:18;98287.06;;;10.09;78.64
75996;BME280;64681;49.738;9.004;2023-04-01T18:31:22;98295.53;;;10.35;78.98
75996;BME280;64681;49.738;9.004;2023-04-01T18:39:22;98306.28;;;10.38;78.09
75996;BME280;64681;49.738;9.004;2023-04-01T18:42:21;98305.34;;;10.07;78.86
75996;BME280;64681;49.738;9.004;2023-04-01T18:45:01;98305.88;;;10.17;77.17
75996;BME280;64681;49.738;9.004;2023-04-01T18:47:43;98321.31;;;10.27;78.04
75996;BME280;64681;49.738;9.004;2023-04-01T18:50:22;98315.50;;;9.82;78.58
75996;BME280;64681;49.738;9.004;2023-04-01T18:53:08;98318.25;;;10.05;78.15
75996;BME280;64681;49.738;9.004;2023-04-01T18:56:25;98323.00;;;10.16;78.42
75996;BME280;64681;49.738;9.004;2023-04-01T19:01:25;98334.03;;;9.94;77.69
75996;BME280;64681;49.738;9.004;2023-04-01T19:04:18;98336.97;;;9.89;77.73
75996;BME280;64681;49.738;9.004;2023-04-01T19:06:53;98333.81;;;10.03;77.54
75996;BME280;64681;49.738;9.004;2023-04-01T19:23:31;98353.41;;;10.11;77.21
75996;BME280;64681;49.738;9.004;2023-04-01T19:26:05;98348.88;;;10.35;77.28
75996;BME280;64681;49.738;9.004;2023-04-01T19:29:26;98358.41;;;10.12;77.48
75996;BME280;64681;49.738;9.004;2023-04-01T19:32:14;98363.09;;;10.00;78.67
75996;BME280;64681;49.738;9.004;2023-04-01T19:38:11;98369.13;;;9.96;78.91
75996;BME280;64681;49.738;9.004;2023-04-01T19:43:07;98375.41;;;9.69;80.21
75996;BME280;64681;49.738;9.004;2023-04-01T20:00:04;98384.34;;;9.60;79.58
75996;BME280;64681;49.738;9.004;2023-04-01T20:08:36;98401.47;;;9.59;79.69
75996;BME280;64681;49.738;9.004;2023-04-01T20:11:37;98409.38;;;9.56;79.12
75996;BME280;64681;49.738;9.004;2023-04-01T20:17:11;98412.66;;;9.33;80.22
75996;BME280;64681;49.738;9.004;2023-04-01T20:19:44;98414.81;;;9.11;81.54
75996;BME280;64681;49.738;9.004;2023-04-01T20:22:24;98418.91;;;9.73;79.47
75996;BME280;64681;49.738;9.004;2023-04-01T20:24:59;98425.59;;;9.82;78.79
75996;BME280;64681;49.738;9.004;2023-04-01T20:27:38;98419.56;;;9.86;78.37
75996;BME280;64681;49.738;9.004;2023-04-01T20:33:14;98424.03;;;9.81;78.88
75996;BME280;64681;49.738;9.004;2023-04-01T20:36:06;98426.50;;;10.06;77.72
75996;BME280;64681;49.738;9.004;2023-04-01T20:44:13;98433.25;;;9.84;78.91
75996;BME280;64681;49.738;9.004;2023-04-01T20:46:55;98432.72;;;9.78;78.96
75996;BME280;64681;49.738;9.004;2023-04-01T20:49:41;98431.31;;;10.01;77.74
75996;BME280;64681;49.738;9.004;2023-04-01T20:57:38;98446.22;;;9.86;78.71
75996;BME280;64681;49.738;9.004;2023-04-01T21:03:23;98446.94;;;9.66;80.03
75996;BME280;64681;49.738;9.004;2023-04-01T21:06:01;98444.84;;;9.92;78.63
75996;BME280;64681;49.738;9.004;2023-04-01T21:11:12;98446.19;;;10.02;78.26
75996;BME280;64681;49.738;9.004;2023-04-01T21:30:35;98480.34;;;10.32;78.34
75996;BME280;64681;49.738;9.004;2023-04-01T21:36:08;98494.50;;;10.16;78.40
75996;BME280;64681;49.738;9.004;2023-04-01T21:41:41;98499.63;;;10.05;78.73
75996;BME280;64681;49.738;9.004;2023-04-01T21:49:59;98494.13;;;9.98;78.74
75996;BME280;64681;49.738;9.004;2023-04-01T21:59:11;98516.53;;;10.13;77.88
75996;BME280;64681;49.738;9.004;2023-04-01T22:04:48;98527.03;;;10.38;77.42
75996;BME280;64681;49.738;9.004;2023-04-01T22:07:21;98524.19;;;10.66;75.89
75996;BME280;64681;49.738;9.004;2023-04-01T22:12:46;98527.16;;;10.45;77.22
75996;BME280;64681;49.738;9.004;2023-04-01T22:21:16;98539.75;;;10.44;76.20
75996;BME280;64681;49.738;9.004;2023-04-01T22:29:20;98550.84;;;10.47;77.00
75996;BME280;64681;49.738;9.004;2023-04-01T22:32:05;98548.66;;;10.52;77.17
75996;BME280;64681;49.738;9.004;2023-04-01T22:42:45;98552.75;;;10.46;77.72
75996;BME280;64681;49.738;9.004;2023-04-01T22:56:01;98560.44;;;10.67;76.11
75996;BME280;64681;49.738;9.004;2023-04-01T22:58:35;98564.69;;;10.52;76.95
75996;BME280;64681;49.738;9.004;2023-04-01T23:04:17;98571.94;;;10.71;76.20
75996;BME280;64681;49.738;9.004;2023-04-01T23:06:55;98573.66;;;10.28;78.00
75996;BME280;64681;49.738;9.004;2023-04-01T23:09:34;98574.78;;;10.27;77.93
75996;BME280;64681;49.738;9.004;2023-04-01T23:12:13;98581.41;;;10.33;77.34
75996;BME280;64681;49.738;9.004;2023-04-01T23:14:48;98579.19;;;10.03;79.33
75996;BME280;64681;49.738;9.004;2023-04-01T23:33:27;98601.13;;;9.80;80.88
75996;BME280;64681;49.738;9.004;2023-04-01T23:38:23;98599.03;;;9.58;81.63
75996;BME280;64681;49.738;9.004;2023-04-01T23:40:52;98612.06;;;9.91;80.71
75996;BME280;64681;49.738;9.004;2023-04-01T23:43:39;98605.44;;;9.69;81.92
75996;BME280;64681;49.738;9.004;2023-04-01T23:46:07;98613.97;;;9.91;81.12
75996;BME280;64681;49.738;9.004;2023-04-01T23:48:39;98617.88;;;9.81;80.46
75996;BME280;64681;49.738;9.004;2023-04-01T23:51:29;98612.81;;;9.76;81.67
75996;BME280;64681;49.738;9.004;2023-04-01T23:54:23;98624.69;;;9.78;80.91
75996;BME280;64681;49.738;9.004;2023-04-01T23:56:54;98623.25;;;9.97;80.48
75996;BME280;64681;49.738;9.004;2023-04-01T23:59:31;98630.63;;;10.36;78.80
